Time;durP1;ratioP1;P1;durP2;ratioP2;P2;SDS_P1;SDS_P2;PMS_P1;PMS_P2;Temp;Humidity;BMP_temperature;BMP_pressure;BME280_temperature;BME280_humidity;BME280_pressure;Samples;Min_cycle;Max_cycle;Signal;HPM_P1;HPM_P2
2023/04/22 00:00:23;;;;;;;1.30;0.70;;;13.80;99.90;;;;;;5096895;28;20472;-62
2023/04/22 00:02:50;;;;;;;1.50;0.70;;;13.70;99.90;;;;;;5096512;28;20421;-61
2023/04/22 00:05:17;;;;;;;1.02;0.70;;;13.70;99.90;;;;;;5096520;28;20483;-62
2023/04/22 00:07:45;;;;;;;1.20;0.60;;;13.80;99.90;;;;;;5096873;28;20481;-62
2023/04/22 00:10:12;;;;;;;1.08;0.70;;;13.80;99.90;;;;;;5096513;28;20493;-63
2023/04/22 00:12:39;;;;;;;0.90;0.60;;;13.70;99.90;;;;;;5096530;28;20418;-63
2023/04/22 00:15:08;;;;;;;1.38;0.90;;;13.60;99.90;;;;;;5096920;28;20475;-64
2023/04/22 00:17:35;;;;;;;1.00;0.60;;;13.60;99.90;;;;;;5096701;28;20426;-62
2023/04/22 00:20:02;;;;;;;1.00;0.70;;;13.50;99.90;;;;;;5095481;28;20497;-62
2023/04/22 00:22:29;;;;;;;1.23;0.60;;;13.60;99.90;;;;;;5096137;28;20582;-62
2023/04/22 00:24:58;;;;;;;0.90;0.60;;;13.60;99.90;;;;;;5094378;28;20853;-63
2023/04/22 00:27:25;;;;;;;1.00;0.70;;;13.50;99.90;;;;;;5095292;28;20426;-62
2023/04/22 00:29:52;;;;;;;1.10;0.60;;;13.50;99.90;;;;;;5095535;28;20784;-63
2023/04/22 00:32:21;;;;;;;1.25;0.60;;;13.40;99.90;;;;;;5095642;28;20457;-63
2023/04/22 00:34:48;;;;;;;1.00;0.70;;;13.50;99.90;;;;;;5095943;28;20854;-63
2023/04/22 00:37:15;;;;;;;1.20;0.60;;;13.50;99.90;;;;;;5095295;28;20509;-63
2023/04/22 00:39:42;;;;;;;1.00;0.70;;;13.50;99.90;;;;;;5095229;28;20418;-63
2023/04/22 00:42:13;;;;;;;1.40;0.70;;;13.60;99.90;;;;;;5095070;28;20433;-63
2023/04/22 00:44:41;;;;;;;0.90;0.65;;;13.50;99.90;;;;;;5095557;28;20487;-63
2023/04/22 00:47:09;;;;;;;1.33;0.70;;;13.50;99.90;;;;;;5095650;28;20544;-62
2023/04/22 00:49:36;;;;;;;0.90;0.70;;;13.60;99.90;;;;;;5095553;28;20451;-64
2023/04/22 00:52:03;;;;;;;0.90;0.70;;;13.50;99.90;;;;;;5097091;28;20430;-63
2023/04/22 00:54:32;;;;;;;1.00;0.70;;;13.50;99.90;;;;;;5095637;28;20868;-62
2023/04/22 00:56:59;;;;;;;1.00;0.70;;;13.50;99.90;;;;;;5095298;28;20425;-62
2023/04/22 00:59:28;;;;;;;1.00;0.70;;;13.40;99.90;;;;;;5094344;28;20740;-62
2023/04/22 01:01:56;;;;;;;1.00;0.70;;;13.40;99.90;;;;;;5095261;28;20453;-63
2023/04/22 01:04:23;;;;;;;1.00;0.60;;;13.50;99.90;;;;;;5094935;28;20491;-63
2023/04/22 01:06:52;;;;;;;2.10;0.80;;;13.60;99.90;;;;;;5095456;28;20432;-63
2023/04/22 01:09:20;;;;;;;0.98;0.77;;;13.50;99.90;;;;;;5095767;28;20495;-62
2023/04/22 01:11:47;;;;;;;0.90;0.70;;;13.50;99.90;;;;;;5095380;28;20469;-62
2023/04/22 01:14:14;;;;;;;2.10;0.90;;;13.50;99.90;;;;;;5095634;28;20493;-62
2023/04/22 01:16:45;;;;;;;1.00;0.80;;;13.50;99.90;;;;;;5095366;28;20425;-62
2023/04/22 01:19:12;;;;;;;1.30;0.80;;;13.40;99.90;;;;;;5094787;28;20422;-62
2023/04/22 01:21:40;;;;;;;1.27;0.80;;;13.40;99.90;;;;;;5095306;28;20418;-62
2023/04/22 01:24:09;;;;;;;1.58;0.80;;;13.40;99.90;;;;;;5094745;28;20525;-62
2023/04/22 01:26:36;;;;;;;1.10;0.80;;;13.40;99.90;;;;;;5095357;28;20887;-62
2023/04/22 01:29:05;;;;;;;1.40;0.90;;;13.40;99.90;;;;;;5095257;28;20467;-62
2023/04/22 01:31:33;;;;;;;1.25;0.90;;;13.40;99.90;;;;;;5095329;28;20461;-62
2023/04/22 01:34:01;;;;;;;1.70;1.00;;;13.40;99.90;;;;;;5094138;28;20417;-62
2023/04/22 01:36:28;;;;;;;1.53;0.90;;;13.40;99.90;;;;;;5094959;28;20433;-62
2023/04/22 01:38:56;;;;;;;1.30;0.90;;;13.40;99.90;;;;;;5093530;28;20830;-62
2023/04/22 01:41:24;;;;;;;0.90;0.80;;;13.30;99.90;;;;;;5094114;28;20425;-62
2023/04/22 01:43:53;;;;;;;2.00;0.90;;;13.30;99.90;;;;;;5094079;28;20475;-63
2023/04/22 01:46:20;;;;;;;1.20;0.80;;;13.40;99.90;;;;;;5094065;28;20494;-61
2023/04/22 01:48:50;;;;;;;1.50;0.80;;;13.40;99.90;;;;;;5094604;28;20704;-62
2023/04/22 01:51:20;;;;;;;1.88;0.80;;;13.30;99.90;;;;;;5094652;28;20490;-61
2023/04/22 01:53:48;;;;;;;1.45;0.90;;;13.30;99.90;;;;;;5094686;28;20510;-62
2023/04/22 01:56:15;;;;;;;1.10;0.90;;;13.30;99.90;;;;;;5095093;28;20429;-61
2023/04/22 01:58:43;;;;;;;1.73;0.90;;;13.30;99.90;;;;;;5094775;28;20552;-62
2023/04/22 02:01:12;;;;;;;1.20;0.90;;;13.30;99.90;;;;;;5095516;28;20425;-61
2023/04/22 02:03:40;;;;;;;1.25;0.90;;;13.20;99.90;;;;;;5094981;28;20418;-63
2023/04/22 02:06:07;;;;;;;1.20;0.90;;;13.20;99.90;;;;;;5094328;28;20536;-62
2023/04/22 02:08:34;;;;;;;1.30;0.90;;;13.30;99.90;;;;;;5094287;28;20445;-63
2023/04/22 02:11:01;;;;;;;1.30;1.00;;;13.20;99.90;;;;;;5093965;28;20434;-63
2023/04/22 02:13:35;;;;;;;2.10;1.00;;;13.20;99.90;;;;;;5093447;28;20449;-63
2023/04/22 02:16:03;;;;;;;1.13;0.82;;;13.10;99.90;;;;;;5093640;28;20885;-63
2023/04/22 02:18:30;;;;;;;1.10;0.70;;;13.10;99.90;;;;;;5093720;28;20417;-62
2023/04/22 02:20:58;;;;;;;1.05;0.80;;;13.10;99.90;;;;;;5094689;28;20425;-63
2023/04/22 02:23:25;;;;;;;0.95;0.70;;;13.10;99.90;;;;;;5093994;28;20429;-62
2023/04/22 02:25:53;;;;;;;1.50;0.70;;;13.10;99.90;;;;;;5094439;28;20430;-63
2023/04/22 02:28:21;;;;;;;1.80;0.80;;;13.10;99.90;;;;;;5094186;28;20433;-62
2023/04/22 02:30:48;;;;;;;1.27;0.80;;;13.20;99.90;;;;;;5093733;28;20417;-62
2023/04/22 02:33:16;;;;;;;1.33;0.80;;;13.20;99.90;;;;;;5094208;28;20452;-62
2023/04/22 02:35:43;;;;;;;1.30;0.90;;;13.20;99.90;;;;;;5094250;28;20421;-63
2023/04/22 02:38:11;;;;;;;2.00;0.80;;;13.10;99.90;;;;;;5094006;28;20418;-63
2023/04/22 02:40:37;;;;;;;1.30;1.00;;;13.20;99.90;;;;;;5093931;28;20444;-62
2023/04/22 02:43:05;;;;;;;3.10;0.90;;;13.20;99.90;;;;;;5094366;28;20418;-62
2023/04/22 02:45:32;;;;;;;1.70;0.70;;;13.20;99.90;;;;;;5094175;28;20487;-63
2023/04/22 02:47:59;;;;;;;1.23;0.90;;;13.20;99.90;;;;;;5094766;28;20414;-62
2023/04/22 02:50:27;;;;;;;1.10;0.87;;;13.20;99.90;;;;;;5093266;28;20744;-62
2023/04/22 02:52:54;;;;;;;1.20;0.90;;;13.10;99.90;;;;;;5094001;28;20471;-62
2023/04/22 02:55:23;;;;;;;1.65;0.82;;;13.00;99.90;;;;;;5094147;28;20902;-62
2023/04/22 02:57:50;;;;;;;1.50;0.90;;;13.00;99.90;;;;;;5094373;28;20700;-63
2023/04/22 03:00:17;;;;;;;1.00;0.70;;;12.90;99.90;;;;;;5093966;28;20429;-63
2023/04/22 03:02:44;;;;;;;1.60;0.80;;;12.80;99.90;;;;;;5094330;28;20725;-63
2023/04/22 03:05:11;;;;;;;1.10;0.80;;;12.80;99.90;;;;;;5093884;28;20434;-63
2023/04/22 03:07:40;;;;;;;1.48;0.70;;;12.80;99.90;;;;;;5094458;28;20429;-63
2023/04/22 03:10:08;;;;;;;1.10;0.77;;;12.90;99.90;;;;;;5093458;28;20491;-64
2023/04/22 03:12:35;;;;;;;1.60;0.80;;;12.90;99.90;;;;;;5094472;28;20506;-63
2023/04/22 03:15:02;;;;;;;1.20;0.70;;;12.90;99.90;;;;;;5094182;28;20421;-63
2023/04/22 03:17:29;;;;;;;1.10;0.90;;;12.80;99.90;;;;;;5093757;28;20837;-62
2023/04/22 03:19:56;;;;;;;1.20;0.80;;;12.80;99.90;;;;;;5097716;28;20426;-62
2023/04/22 03:22:23;;;;;;;2.10;0.80;;;12.80;99.90;;;;;;5097994;28;20402;-62
2023/04/22 03:24:51;;;;;;;1.05;0.77;;;12.90;99.90;;;;;;5097971;28;20422;-61
2023/04/22 03:27:18;;;;;;;3.00;0.80;;;12.90;99.90;;;;;;5098088;28;20752;-60
2023/04/22 03:29:45;;;;;;;1.20;0.80;;;12.90;99.90;;;;;;5096539;28;20421;-61
2023/04/22 03:32:12;;;;;;;1.50;0.80;;;12.80;99.90;;;;;;5097297;28;20434;-62
2023/04/22 03:34:39;;;;;;;1.33;0.80;;;12.70;99.90;;;;;;5096698;28;20418;-62
2023/04/22 03:37:06;;;;;;;1.00;0.80;;;12.70;99.90;;;;;;5095945;28;20487;-63
2023/04/22 03:39:33;;;;;;;1.10;0.80;;;12.70;99.90;;;;;;5096869;28;20888;-62
2023/04/22 03:42:02;;;;;;;1.10;0.80;;;12.70;99.90;;;;;;5097874;28;20829;-62
2023/04/22 03:44:29;;;;;;;1.27;0.90;;;12.70;99.90;;;;;;5097283;28;20418;-62
2023/04/22 03:46:56;;;;;;;1.30;0.90;;;12.70;99.90;;;;;;5097698;28;20867;-63
2023/04/22 03:49:23;;;;;;;1.73;1.00;;;12.60;99.90;;;;;;5097307;28;20837;-63
2023/04/22 03:51:50;;;;;;;1.40;0.90;;;12.40;99.90;;;;;;5097456;28;20871;-63
2023/04/22 03:54:17;;;;;;;1.70;0.90;;;12.30;99.90;;;;;;5097186;28;20425;-63
2023/04/22 03:56:44;;;;;;;2.10;0.90;;;12.40;99.90;;;;;;5097458;28;20426;-64
2023/04/22 03:59:12;;;;;;;1.65;0.88;;;12.40;99.90;;;;;;5097058;28;20485;-63
2023/04/22 04:01:39;;;;;;;1.30;1.00;;;12.40;99.90;;;;;;5097397;28;20448;-62
2023/04/22 04:04:06;;;;;;;2.00;0.90;;;12.40;99.90;;;;;;5097858;28;20829;-62
2023/04/22 04:06:33;;;;;;;1.20;0.90;;;12.40;99.90;;;;;;5097613;28;20494;-63
2023/04/22 04:09:01;;;;;;;1.30;0.97;;;12.40;99.90;;;;;;5097052;28;20422;-63
2023/04/22 04:11:28;;;;;;;1.40;1.00;;;12.30;99.90;;;;;;5096814;28;20488;-62
2023/04/22 04:13:55;;;;;;;1.80;1.20;;;12.20;99.90;;;;;;5096198;28;20421;-62
2023/04/22 04:16:23;;;;;;;1.50;1.08;;;12.10;99.90;;;;;;5097156;28;20486;-62
2023/04/22 04:18:50;;;;;;;2.60;1.10;;;12.10;99.90;;;;;;5096570;28;20422;-62
2023/04/22 04:21:18;;;;;;;2.35;1.35;;;12.20;99.90;;;;;;5096764;28;20422;-63
2023/04/22 04:23:45;;;;;;;2.07;1.20;;;12.20;99.90;;;;;;5096977;28;20422;-62
2023/04/22 04:26:13;;;;;;;2.50;1.40;;;12.20;99.90;;;;;;5096234;28;20849;-63
2023/04/22 04:28:41;;;;;;;2.00;1.30;;;12.20;99.90;;;;;;5095219;28;20829;-63
2023/04/22 04:31:08;;;;;;;1.50;1.25;;;12.10;99.90;;;;;;5096628;28;20729;-62
2023/04/22 04:33:36;;;;;;;2.30;1.63;;;12.10;99.90;;;;;;5096396;28;20422;-62
2023/04/22 04:36:04;;;;;;;2.20;1.65;;;12.20;99.90;;;;;;5096474;28;20529;-62
2023/04/22 04:38:31;;;;;;;2.40;1.70;;;12.20;99.90;;;;;;5093765;28;20509;-63
2023/04/22 04:40:58;;;;;;;2.35;1.70;;;12.20;99.90;;;;;;5093260;28;20846;-63
2023/04/22 04:43:25;;;;;;;4.95;3.33;;;12.20;99.90;;;;;;5095057;28;20421;-63
2023/04/22 04:45:53;;;;;;;2.40;1.98;;;12.10;99.90;;;;;;5094337;28;20426;-64
2023/04/22 04:48:23;;;;;;;4.38;2.20;;;12.00;99.90;;;;;;5095115;28;20422;-63
2023/04/22 04:50:53;;;;;;;3.58;2.10;;;12.00;99.90;;;;;;5093990;28;20462;-63
2023/04/22 04:53:21;;;;;;;2.25;1.58;;;12.00;99.90;;;;;;5095251;28;20424;-63
2023/04/22 04:55:49;;;;;;;3.45;1.75;;;11.90;99.90;;;;;;5096144;28;20426;-63
2023/04/22 04:58:16;;;;;;;2.40;1.40;;;11.90;99.90;;;;;;5095520;28;20770;-62
2023/04/22 05:00:43;;;;;;;1.63;1.30;;;11.90;99.90;;;;;;5095658;28;20432;-62
2023/04/22 05:03:10;;;;;;;1.90;1.10;;;12.00;99.90;;;;;;5095471;28;20406;-64
2023/04/22 05:05:37;;;;;;;1.50;0.90;;;12.00;99.90;;;;;;5095184;28;20429;-62
2023/04/22 05:08:05;;;;;;;1.15;0.80;;;12.10;99.90;;;;;;5095361;28;20421;-63
2023/04/22 05:10:32;;;;;;;1.00;0.70;;;12.10;99.90;;;;;;5095874;28;20745;-63
2023/04/22 05:12:59;;;;;;;1.17;0.80;;;12.10;99.90;;;;;;5095734;28;20506;-63
2023/04/22 05:15:26;;;;;;;1.10;0.80;;;12.20;99.90;;;;;;5095910;28;20425;-63
2023/04/22 05:17:54;;;;;;;1.00;0.70;;;12.20;99.90;;;;;;5095704;28;20482;-64
2023/04/22 05:20:21;;;;;;;1.20;0.80;;;12.20;99.90;;;;;;5094954;28;20425;-63
2023/04/22 05:22:48;;;;;;;1.17;0.80;;;12.30;99.90;;;;;;5094476;28;20470;-63
2023/04/22 05:25:16;;;;;;;1.10;0.80;;;12.30;99.90;;;;;;5094205;28;20791;-61
2023/04/22 05:27:43;;;;;;;0.90;0.60;;;12.30;99.90;;;;;;5094884;28;20417;-61
2023/04/22 05:30:11;;;;;;;1.20;0.70;;;12.30;99.90;;;;;;5093476;28;20898;-60
2023/04/22 05:32:38;;;;;;;1.00;0.75;;;12.40;99.90;;;;;;5091752;28;20868;-61
2023/04/22 05:35:06;;;;;;;1.20;0.80;;;12.30;99.90;;;;;;5092419;28;20858;-63
2023/04/22 05:37:33;;;;;;;1.20;0.80;;;12.30;99.90;;;;;;5093020;28;20414;-60
2023/04/22 05:40:00;;;;;;;1.60;1.00;;;12.30;99.90;;;;;;5092753;28;20417;-61
2023/04/22 05:42:28;;;;;;;1.43;0.80;;;12.30;99.90;;;;;;5091795;28;20475;-61
2023/04/22 05:44:55;;;;;;;1.10;0.70;;;12.30;99.90;;;;;;5091551;28;20448;-61
2023/04/22 05:47:22;;;;;;;1.00;0.80;;;12.20;99.90;;;;;;5095214;28;20425;-61
2023/04/22 05:49:49;;;;;;;1.60;0.80;;;12.20;99.90;;;;;;5094570;28;20475;-61
2023/04/22 05:52:17;;;;;;;1.17;0.70;;;12.20;99.90;;;;;;5093280;28;20426;-61
2023/04/22 05:54:44;;;;;;;1.30;0.80;;;12.20;99.90;;;;;;5093553;28;20445;-61
2023/04/22 05:57:11;;;;;;;1.40;0.70;;;12.30;99.90;;;;;;5093406;28;20426;-62
2023/04/22 05:59:39;;;;;;;1.00;0.80;;;12.20;99.90;;;;;;5093396;28;20414;-60
2023/04/22 06:02:06;;;;;;;1.70;0.80;;;12.30;99.90;;;;;;5094030;28;20430;-61
2023/04/22 06:04:33;;;;;;;1.10;0.80;;;12.40;99.90;;;;;;5093413;28;20984;-60
2023/04/22 06:07:00;;;;;;;1.20;0.80;;;12.50;99.90;;;;;;5094298;28;20520;-60
2023/04/22 06:09:27;;;;;;;1.00;0.70;;;12.50;99.90;;;;;;5094580;28;20475;-61
2023/04/22 06:11:55;;;;;;;1.42;0.70;;;12.60;99.90;;;;;;5093356;28;20437;-60
2023/04/22 06:14:22;;;;;;;1.10;0.80;;;12.70;99.90;;;;;;5094226;28;20418;-60
2023/04/22 06:16:51;;;;;;;1.00;0.80;;;12.90;99.90;;;;;;5094406;28;20487;-61
2023/04/22 06:19:18;;;;;;;2.93;0.80;;;13.00;99.90;;;;;;5094078;28;20479;-57
2023/04/22 06:21:46;;;;;;;1.23;0.80;;;13.20;99.90;;;;;;5093105;28;20479;-60
2023/04/22 06:24:13;;;;;;;1.10;0.70;;;13.30;99.90;;;;;;5092932;28;20425;-61
2023/04/22 06:26:40;;;;;;;1.10;0.70;;;13.40;99.90;;;;;;5092708;28;20422;-61
2023/04/22 06:29:07;;;;;;;1.25;0.80;;;13.50;99.90;;;;;;5093123;28;20476;-61
2023/04/22 06:31:34;;;;;;;1.10;0.80;;;13.60;99.90;;;;;;5093248;28;20434;-61
2023/04/22 06:34:03;;;;;;;1.13;0.80;;;13.70;99.90;;;;;;5093338;28;20464;-61
2023/04/22 06:36:30;;;;;;;1.00;0.70;;;13.80;99.90;;;;;;5093233;28;20426;-61
2023/04/22 06:38:57;;;;;;;1.33;0.80;;;13.90;99.90;;;;;;5092537;28;20410;-61
2023/04/22 06:41:24;;;;;;;1.60;0.80;;;13.90;99.90;;;;;;5092723;28;20426;-61
2023/04/22 06:43:51;;;;;;;1.00;0.70;;;14.00;99.90;;;;;;5091789;28;20483;-61
2023/04/22 06:46:18;;;;;;;1.30;0.70;;;14.00;99.90;;;;;;5092166;28;20433;-61
2023/04/22 06:48:46;;;;;;;1.00;0.80;;;14.10;99.90;;;;;;5092570;28;20417;-62
2023/04/22 06:51:15;;;;;;;1.50;0.80;;;14.10;99.90;;;;;;5091959;28;20595;-62
2023/04/22 06:53:42;;;;;;;1.10;0.80;;;14.20;99.90;;;;;;5098240;28;20737;-62
2023/04/22 06:56:09;;;;;;;1.20;0.75;;;14.30;99.90;;;;;;5099325;28;20425;-61
2023/04/22 06:58:36;;;;;;;1.20;0.80;;;14.30;99.90;;;;;;5099849;28;20720;-61
2023/04/22 07:01:03;;;;;;;1.13;0.80;;;14.30;99.90;;;;;;5098865;28;20432;-62
2023/04/22 07:03:30;;;;;;;1.20;0.73;;;14.30;99.90;;;;;;5099028;28;20421;-61
2023/04/22 07:05:57;;;;;;;1.20;0.90;;;14.40;99.90;;;;;;5098681;28;20417;-60
2023/04/22 07:08:25;;;;;;;1.50;0.90;;;14.50;99.90;;;;;;5101088;28;20417;-64
2023/04/22 07:10:52;;;;;;;1.60;1.10;;;14.60;99.90;;;;;;5101630;28;20429;-63
2023/04/22 07:13:19;;;;;;;1.40;1.00;;;14.70;99.90;;;;;;5100308;28;20430;-62
2023/04/22 07:15:47;;;;;;;1.60;1.30;;;14.80;99.90;;;;;;5100677;28;20482;-63
2023/04/22 07:18:14;;;;;;;4.10;2.10;;;14.90;99.90;;;;;;5097858;28;20417;-63
2023/04/22 07:20:41;;;;;;;2.37;1.40;;;15.00;99.90;;;;;;5100220;28;20730;-62
2023/04/22 07:23:08;;;;;;;2.22;1.90;;;14.80;99.90;;;;;;5098301;28;20413;-63
2023/04/22 07:25:36;;;;;;;2.40;1.50;;;14.80;99.90;;;;;;5098331;28;20848;-63
2023/04/22 07:28:03;;;;;;;3.17;1.47;;;14.90;99.90;;;;;;5099133;28;20424;-63
2023/04/22 07:30:30;;;;;;;2.70;1.70;;;15.00;99.90;;;;;;5099801;28;20425;-63
2023/04/22 07:32:57;;;;;;;2.50;1.50;;;15.10;99.90;;;;;;5081530;28;20503;-63
2023/04/22 07:35:24;;;;;;;2.10;1.20;;;15.20;99.90;;;;;;5079786;28;20496;-64
2023/04/22 07:37:51;;;;;;;1.70;1.30;;;15.20;99.90;;;;;;5080107;28;20465;-63
2023/04/22 07:40:18;;;;;;;2.20;1.30;;;15.40;99.90;;;;;;5079326;28;20427;-63
2023/04/22 07:42:47;;;;;;;1.85;1.50;;;15.60;99.90;;;;;;5085441;28;20734;-63
2023/04/22 07:45:14;;;;;;;2.30;1.08;;;15.70;99.90;;;;;;5089729;28;20913;-62
2023/04/22 07:47:41;;;;;;;2.40;1.40;;;15.90;99.90;;;;;;5080890;28;20536;-63
2023/04/22 07:50:09;;;;;;;1.60;1.40;;;16.00;99.90;;;;;;5090713;28;20870;-62
2023/04/22 07:52:36;;;;;;;2.10;1.23;;;16.00;99.90;;;;;;5084555;28;20745;-62
2023/04/22 07:55:03;;;;;;;1.40;0.90;;;16.10;99.90;;;;;;5081371;28;20476;-61
2023/04/22 07:57:31;;;;;;;1.15;0.80;;;16.30;99.90;;;;;;5091579;28;20847;-63
2023/04/22 08:00:00;;;;;;;1.10;0.80;;;16.40;99.90;;;;;;5088259;28;20503;-63
2023/04/22 08:02:28;;;;;;;1.30;0.70;;;16.30;99.90;;;;;;5086626;28;20425;-63
2023/04/22 08:04:55;;;;;;;1.50;0.70;;;16.30;99.90;;;;;;5081069;28;20687;-63
2023/04/22 08:07:22;;;;;;;1.20;0.70;;;16.30;99.90;;;;;;5086858;28;20933;-64
2023/04/22 08:09:49;;;;;;;0.90;0.70;;;16.40;99.90;;;;;;5087003;28;20448;-63
2023/04/22 08:12:16;;;;;;;1.90;0.70;;;16.40;99.90;;;;;;5082917;28;20433;-63
2023/04/22 08:14:43;;;;;;;1.20;0.70;;;16.40;99.90;;;;;;5094933;28;20432;-63
2023/04/22 08:17:11;;;;;;;0.90;0.63;;;16.50;99.90;;;;;;5092476;28;20460;-64
2023/04/22 08:19:38;;;;;;;1.10;0.70;;;16.40;99.90;;;;;;5090902;28;20441;-64
2023/04/22 08:22:05;;;;;;;0.97;0.70;;;16.30;99.90;;;;;;5086963;28;20449;-63
2023/04/22 08:24:32;;;;;;;0.90;0.60;;;16.30;99.90;;;;;;5085025;28;20521;-64
2023/04/22 08:27:00;;;;;;;1.10;0.70;;;16.20;99.90;;;;;;5095758;28;20855;-64
2023/04/22 08:29:27;;;;;;;1.20;0.80;;;16.30;99.90;;;;;;5091193;28;20784;-64
2023/04/22 08:31:54;;;;;;;0.90;0.60;;;16.30;99.90;;;;;;5085503;28;20441;-64
2023/04/22 08:34:23;;;;;;;1.20;0.60;;;16.40;99.90;;;;;;5090678;28;20491;-64
2023/04/22 08:36:50;;;;;;;1.38;0.70;;;16.40;99.90;;;;;;5090476;28;20699;-63
2023/04/22 08:39:17;;;;;;;0.75;0.60;;;16.60;99.90;;;;;;5093934;28;20426;-63
2023/04/22 08:41:45;;;;;;;0.80;0.60;;;16.60;99.90;;;;;;5081922;28;20440;-63
2023/04/22 08:44:14;;;;;;;1.40;0.60;;;16.80;99.90;;;;;;5090934;28;20762;-64
2023/04/22 08:46:45;;;;;;;1.25;0.50;;;17.00;99.90;;;;;;5092434;28;20499;-63
2023/04/22 08:49:13;;;;;;;0.75;0.60;;;17.10;99.90;;;;;;5088223;28;20428;-65
2023/04/22 08:51:43;;;;;;;0.82;0.60;;;17.20;99.90;;;;;;5093263;28;20437;-66
2023/04/22 08:54:11;;;;;;;0.80;0.60;;;17.10;99.90;;;;;;5088807;28;20423;-65
2023/04/22 08:56:41;;;;;;;1.10;0.60;;;17.20;99.90;;;;;;5089958;28;20441;-65
2023/04/22 08:59:10;;;;;;;0.88;0.60;;;17.50;99.90;;;;;;5086113;28;20837;-66
2023/04/22 09:01:41;;;;;;;1.23;0.60;;;17.70;99.90;;;;;;5091638;28;20551;-65
2023/04/22 09:04:10;;;;;;;0.88;0.60;;;17.80;99.90;;;;;;5083901;28;20509;-64
2023/04/22 09:06:38;;;;;;;0.70;0.60;;;18.00;99.90;;;;;;5086819;28;20446;-64
2023/04/22 09:09:08;;;;;;;0.80;0.60;;;18.10;99.90;;;;;;5083670;28;20899;-65
2023/04/22 09:11:36;;;;;;;0.98;0.60;;;18.30;99.90;;;;;;5086192;28;20438;-64
2023/04/22 09:14:04;;;;;;;0.80;0.50;;;18.50;99.90;;;;;;5091484;28;20499;-64
2023/04/22 09:16:31;;;;;;;1.20;0.60;;;18.60;99.90;;;;;;5085562;28;20477;-64
2023/04/22 09:18:59;;;;;;;1.10;0.60;;;18.70;99.90;;;;;;5086342;28;20444;-65
2023/04/22 09:21:27;;;;;;;1.98;0.60;;;18.90;99.90;;;;;;5087659;28;20471;-64
2023/04/22 09:23:55;;;;;;;0.70;0.60;;;19.00;99.90;;;;;;5087465;28;20596;-65
2023/04/22 09:26:25;;;;;;;0.73;0.50;;;19.10;99.90;;;;;;5087548;28;20431;-65
2023/04/22 09:28:54;;;;;;;0.70;0.50;;;19.20;99.90;;;;;;5080600;28;20528;-65
2023/04/22 09:31:22;;;;;;;1.10;0.60;;;19.40;99.90;;;;;;5092857;28;20457;-65
2023/04/22 09:33:51;;;;;;;0.80;0.50;;;19.50;99.90;;;;;;5086035;28;20801;-65
2023/04/22 09:36:22;;;;;;;0.80;0.50;;;19.50;99.90;;;;;;5084133;28;20441;-64
2023/04/22 09:38:54;;;;;;;1.50;0.50;;;19.50;99.90;;;;;;5085138;28;20422;-64
2023/04/22 09:41:29;;;;;;;0.70;0.50;;;19.50;99.90;;;;;;5093485;28;20469;-63
2023/04/22 09:43:57;;;;;;;0.60;0.40;;;19.60;99.90;;;;;;5088391;28;20450;-66
2023/04/22 09:46:25;;;;;;;0.70;0.50;;;19.60;99.90;;;;;;5089048;28;20461;-64
2023/04/22 09:48:53;;;;;;;0.70;0.60;;;19.90;99.90;;;;;;5085455;28;20840;-62
2023/04/22 09:51:20;;;;;;;0.80;0.60;;;19.90;99.90;;;;;;5086811;28;20863;-66
2023/04/22 09:53:59;;;;;;;0.70;0.50;;;19.90;99.90;;;;;;5077393;28;20504;-65
2023/04/22 09:56:48;;;;;;;0.90;0.50;;;20.00;99.90;;;;;;5074907;28;20414;-66
2023/04/22 09:59:20;;;;;;;0.70;0.50;;;20.30;99.90;;;;;;5087204;28;20430;-65
2023/04/22 10:01:47;;;;;;;0.70;0.50;;;20.60;99.90;;;;;;5086588;28;20524;-65
2023/04/22 10:04:15;;;;;;;0.70;0.50;;;20.70;99.90;;;;;;5090762;28;20421;-66
2023/04/22 10:06:42;;;;;;;1.00;0.50;;;20.70;99.90;;;;;;5088810;28;20445;-65
2023/04/22 10:09:11;;;;;;;1.00;0.50;;;20.60;99.90;;;;;;5089331;28;20867;-65
2023/04/22 10:11:39;;;;;;;1.00;0.50;;;20.70;99.90;;;;;;5087720;28;20431;-65
2023/04/22 10:14:09;;;;;;;0.60;0.50;;;20.80;99.90;;;;;;5072858;28;20439;-66
2023/04/22 10:16:38;;;;;;;0.80;0.50;;;21.00;99.90;;;;;;5093094;28;20742;-64
2023/04/22 10:19:07;;;;;;;0.63;0.40;;;21.20;99.90;;;;;;5092837;28;20861;-63
2023/04/22 10:21:35;;;;;;;0.70;0.50;;;21.40;99.90;;;;;;5082786;28;20432;-64
2023/04/22 10:24:03;;;;;;;0.60;0.50;;;21.70;99.90;;;;;;5085254;28;20425;-65
2023/04/22 10:26:41;;;;;;;0.60;0.40;;;21.80;99.90;;;;;;5077973;28;20450;-63
2023/04/22 10:29:15;;;;;;;0.68;0.40;;;22.00;97.30;;;;;;5072450;28;20469;-64
2023/04/22 10:31:44;;;;;;;1.17;0.40;;;22.10;97.30;;;;;;5075317;28;20884;-65
2023/04/22 10:34:13;;;;;;;0.60;0.40;;;22.30;96.90;;;;;;5090503;28;20425;-63
2023/04/22 10:36:59;;;;;;;0.50;0.30;;;22.70;94.30;;;;;;5089907;28;20442;-64
2023/04/22 10:39:27;;;;;;;0.60;0.30;;;22.80;92.70;;;;;;5092411;28;20413;-65
2023/04/22 10:42:06;;;;;;;0.90;0.50;;;22.70;90.40;;;;;;5078014;28;20431;-65
2023/04/22 10:44:48;;;;;;;0.60;0.40;;;22.60;87.30;;;;;;5086799;28;20427;-66
2023/04/22 10:47:26;;;;;;;0.75;0.40;;;22.90;85.60;;;;;;5091967;28;20421;-64
2023/04/22 10:50:13;;;;;;;0.50;0.38;;;23.00;78.70;;;;;;5090243;28;20459;-66
2023/04/22 10:52:40;;;;;;;1.10;0.40;;;23.40;78.60;;;;;;5085148;28;20460;-65
2023/04/22 10:55:07;;;;;;;0.50;0.30;;;23.80;78.60;;;;;;5078714;28;20948;-66
2023/04/22 10:57:39;;;;;;;0.80;0.30;;;24.00;70.80;;;;;;5090789;28;20414;-64
2023/04/22 11:00:23;;;;;;;0.70;0.30;;;24.00;69.00;;;;;;5083041;28;20932;-66
2023/04/22 11:02:53;;;;;;;0.93;0.40;;;24.10;66.90;;;;;;5088091;28;21147;-65
2023/04/22 11:05:22;;;;;;;0.65;0.40;;;24.00;59.30;;;;;;5091756;28;20494;-66
2023/04/22 11:07:50;;;;;;;0.70;0.40;;;23.70;59.70;;;;;;5079590;28;20441;-59
2023/04/22 11:10:40;;;;;;;0.80;0.40;;;23.70;59.70;;;;;;5086424;28;20646;-59
2023/04/22 11:13:08;;;;;;;0.63;0.40;;;23.50;58.40;;;;;;5088932;28;20739;-59
2023/04/22 11:15:38;;;;;;;0.63;0.40;;;23.40;55.80;;;;;;5085733;28;20831;-60
2023/04/22 11:18:14;;;;;;;1.10;0.40;;;23.20;56.40;;;;;;5073719;28;20425;-60
2023/04/22 11:20:41;;;;;;;0.98;0.40;;;23.50;57.80;;;;;;5075738;28;20482;-59
2023/04/22 11:23:08;;;;;;;0.50;0.40;;;23.70;57.00;;;;;;5072392;28;20839;-59
2023/04/22 11:25:35;;;;;;;0.70;0.40;;;23.60;56.20;;;;;;5088859;28;20438;-63
2023/04/22 11:28:02;;;;;;;1.40;0.30;;;23.60;56.90;;;;;;5083193;28;20861;-62
2023/04/22 11:30:30;;;;;;;1.00;0.40;;;23.80;54.80;;;;;;5078679;28;20542;-60
2023/04/22 11:33:00;;;;;;;0.70;0.40;;;24.00;54.70;;;;;;5084857;28;20431;-60
2023/04/22 11:35:30;;;;;;;0.70;0.40;;;24.00;54.00;;;;;;5079979;28;20442;-59
2023/04/22 11:38:00;;;;;;;0.68;0.40;;;24.20;54.70;;;;;;5082663;28;20520;-61
2023/04/22 11:40:28;;;;;;;1.20;0.40;;;24.40;53.60;;;;;;5081349;28;20441;-61
2023/04/22 11:42:56;;;;;;;0.70;0.40;;;24.40;53.90;;;;;;5083705;28;20429;-58
2023/04/22 11:45:24;;;;;;;1.10;0.50;;;24.50;53.50;;;;;;5090983;28;20461;-60
2023/04/22 11:47:54;;;;;;;0.70;0.40;;;24.30;53.10;;;;;;5083019;28;20518;-60
2023/04/22 11:50:23;;;;;;;0.90;0.50;;;24.20;52.40;;;;;;5090093;28;20435;-59
2023/04/22 11:52:53;;;;;;;0.60;0.40;;;24.40;53.00;;;;;;5084700;28;20508;-59
2023/04/22 11:55:22;;;;;;;1.17;0.40;;;24.60;53.20;;;;;;5083613;28;20429;-61
2023/04/22 11:57:55;;;;;;;1.10;0.70;;;24.80;53.60;;;;;;5089607;28;20927;-60
2023/04/22 12:00:22;;;;;;;1.38;0.40;;;24.80;52.90;;;;;;5078170;28;20504;-60
2023/04/22 12:02:57;;;;;;;0.93;0.50;;;24.50;52.70;;;;;;5086306;28;20849;-61
2023/04/22 12:05:37;;;;;;;1.15;0.50;;;24.20;53.10;;;;;;5090143;28;20661;-61
2023/04/22 12:08:07;;;;;;;1.10;0.50;;;23.70;52.60;;;;;;5072779;28;20575;-61
2023/04/22 12:10:40;;;;;;;0.70;0.40;;;23.70;54.40;;;;;;5091860;28;20516;-62
2023/04/22 12:13:08;;;;;;;0.90;0.50;;;23.60;53.80;;;;;;5089607;28;20545;-62
2023/04/22 12:15:39;;;;;;;0.80;0.50;;;24.00;54.80;;;;;;5089907;28;20433;-60
2023/04/22 12:18:07;;;;;;;1.30;0.40;;;24.60;54.00;;;;;;5093590;28;20429;-60
2023/04/22 12:20:36;;;;;;;0.60;0.40;;;24.50;53.40;;;;;;5077731;28;20524;-60
2023/04/22 12:23:04;;;;;;;1.52;0.40;;;24.20;54.80;;;;;;5091543;28;20522;-59
2023/04/22 12:25:32;;;;;;;0.70;0.40;;;24.10;55.00;;;;;;5093133;28;20426;-60
2023/04/22 12:27:59;;;;;;;0.63;0.40;;;23.90;56.10;;;;;;5095174;28;20425;-61
2023/04/22 12:30:27;;;;;;;2.10;0.40;;;23.60;55.60;;;;;;5093998;28;20435;-61
2023/04/22 12:32:54;;;;;;;1.20;0.50;;;23.60;56.10;;;;;;5094550;28;20786;-61
2023/04/22 12:35:22;;;;;;;1.30;0.50;;;23.90;55.90;;;;;;5094437;28;20437;-60
2023/04/22 12:37:50;;;;;;;0.73;0.50;;;24.30;55.90;;;;;;5093066;28;20420;-61
2023/04/22 12:40:17;;;;;;;0.93;0.50;;;24.10;55.90;;;;;;5088457;28;20845;-58
2023/04/22 12:42:44;;;;;;;0.70;0.43;;;23.80;54.50;;;;;;5073478;28;20423;-61
2023/04/22 12:45:12;;;;;;;0.73;0.40;;;23.80;54.90;;;;;;5073084;28;20427;-60
2023/04/22 12:47:39;;;;;;;1.00;0.50;;;24.20;54.90;;;;;;5071738;28;20416;-59
2023/04/22 12:50:07;;;;;;;1.40;0.50;;;24.20;54.30;;;;;;5073007;28;20897;-58
2023/04/22 12:52:35;;;;;;;0.60;0.40;;;24.10;53.20;;;;;;5092190;28;20426;-59